Time;durP1;ratioP1;P1;durP2;ratioP2;P2;SDS_P1;SDS_P2;PMS_P1;PMS_P2;Temp;Humidity;BMP_temperature;BMP_pressure;BME280_temperature;BME280_humidity;BME280_pressure;Samples;Min_cycle;Max_cycle;Signal;HPM_P1;HPM_P2
2021/07/25 00:00:45;;;;;;;31.85;21.08;;;;;;;;;;5033174;28;20474;-70
2021/07/25 00:03:11;;;;;;;24.75;20.25;;;;;;;;;;5033257;28;20026;-71
2021/07/25 00:05:40;;;;;;;28.73;19.85;;;;;;;;;;5031477;28;20025;-71
2021/07/25 00:08:11;;;;;;;23.85;18.73;;;;;;;;;;5033097;28;20431;-70
2021/07/25 00:10:37;;;;;;;;;;;;;;;;;;5033370;28;20028;-70
2021/07/25 00:13:04;;;;;;;31.30;21.40;;;;;;;;;;5029989;28;19905;-70
2021/07/25 00:15:30;;;;;;;34.28;22.20;;;;;;;;;;5031457;28;20037;-70
2021/07/25 00:17:56;;;;;;;39.15;23.13;;;;;;;;;;5033203;28;20109;-70
2021/07/25 00:20:22;;;;;;;30.92;21.63;;;;;;;;;;5032923;28;20017;-70
2021/07/25 00:22:48;;;;;;;35.15;21.95;;;;;;;;;;5032918;28;20108;-70
2021/07/25 00:27:59;;;;;;;33.50;21.10;;;;;;;;;;5030091;28;20060;-70
2021/07/25 00:30:26;;;;;;;30.67;19.23;;;;;;;;;;5032907;28;20029;-70
2021/07/25 00:32:53;;;;;;;35.28;20.02;;;;;;;;;;5033682;28;20155;-70
2021/07/25 00:35:19;;;;;;;31.75;19.02;;;;;;;;;;5036884;28;20672;-70
2021/07/25 00:37:47;;;;;;;33.53;19.60;;;;;;;;;;5036854;28;20489;-70
2021/07/25 00:40:30;;;;;;;27.88;20.08;;;;;;;;;;5036809;28;20030;-70
2021/07/25 00:42:56;;;;;;;28.88;20.15;;;;;;;;;;5035534;28;20116;-70
2021/07/25 00:45:22;;;;;;;33.42;21.67;;;;;;;;;;5036311;28;20446;-70
2021/07/25 00:47:49;;;;;;;35.35;20.80;;;;;;;;;;5035318;28;20454;-70
2021/07/25 00:50:15;;;;;;;27.10;21.27;;;;;;;;;;5036594;28;20025;-70
2021/07/25 00:52:42;;;;;;;29.60;21.02;;;;;;;;;;5036548;28;20128;-70
2021/07/25 00:55:08;;;;;;;29.08;20.92;;;;;;;;;;5036546;28;20382;-70
2021/07/25 00:57:34;;;;;;;25.75;19.27;;;;;;;;;;5035169;28;20029;-70
2021/07/25 01:00:01;;;;;;;24.48;18.20;;;;;;;;;;5036386;28;20071;-70
2021/07/25 01:02:33;;;;;;;29.50;18.63;;;;;;;;;;5036348;28;20108;-70
2021/07/25 01:05:20;;;;;;;24.60;18.02;;;;;;;;;;5036291;28;20067;-70
2021/07/25 01:08:09;;;;;;;25.77;18.70;;;;;;;;;;5024538;28;20445;-70
2021/07/25 01:10:35;;;;;;;27.05;18.65;;;;;;;;;;5035015;28;20370;-70
2021/07/25 01:13:04;;;;;;;25.35;20.10;;;;;;;;;;5036205;28;20514;-70
2021/07/25 01:15:31;;;;;;;36.20;20.98;;;;;;;;;;5036165;28;20041;-70
2021/07/25 01:17:59;;;;;;;38.10;21.58;;;;;;;;;;5036361;28;20034;-70
2021/07/25 01:20:26;;;;;;;35.72;22.58;;;;;;;;;;5036022;28;20079;-70
2021/07/25 01:22:54;;;;;;;36.05;24.30;;;;;;;;;;5034694;28;20516;-70
2021/07/25 01:25:22;;;;;;;37.55;23.10;;;;;;;;;;5036127;28;20112;-70
2021/07/25 01:27:59;;;;;;;38.83;23.77;;;;;;;;;;5035841;28;20053;-70
2021/07/25 01:30:30;;;;;;;34.13;21.77;;;;;;;;;;5035941;28;20435;-70
2021/07/25 01:32:58;;;;;;;35.22;22.08;;;;;;;;;;5036105;28;20079;-71
2021/07/25 01:35:25;;;;;;;29.95;22.45;;;;;;;;;;5036091;28;20369;-70
2021/07/25 01:37:52;;;;;;;29.92;22.48;;;;;;;;;;5035692;28;20079;-70
2021/07/25 01:40:22;;;;;;;31.95;23.90;;;;;;;;;;5035508;28;20025;-70
2021/07/25 01:42:49;;;;;;;25.52;21.77;;;;;;;;;;5034716;28;20044;-70
2021/07/25 01:45:15;;;;;;;31.23;22.40;;;;;;;;;;5034648;28;20092;-70
2021/07/25 01:47:41;;;;;;;23.73;21.23;;;;;;;;;;5035283;28;20022;-70
2021/07/25 01:50:08;;;;;;;34.25;21.52;;;;;;;;;;5035037;28;20028;-71
2021/07/25 01:52:34;;;;;;;25.98;21.15;;;;;;;;;;5034091;28;20031;-71
2021/07/25 01:55:01;;;;;;;29.52;21.50;;;;;;;;;;5034096;28;20370;-69
2021/07/25 01:57:27;;;;;;;27.15;20.98;;;;;;;;;;5035075;28;20536;-70
2021/07/25 01:59:53;;;;;;;29.92;21.38;;;;;;;;;;5035334;28;20113;-70
2021/07/25 02:02:19;;;;;;;27.88;21.20;;;;;;;;;;5033996;28;20025;-69
2021/07/25 02:04:45;;;;;;;26.52;21.67;;;;;;;;;;5035203;28;20032;-71
2021/07/25 02:07:12;;;;;;;26.77;21.25;;;;;;;;;;5035159;28;20026;-71
2021/07/25 02:09:38;;;;;;;29.40;21.55;;;;;;;;;;5033826;28;20025;-70
2021/07/25 02:12:05;;;;;;;24.70;21.10;;;;;;;;;;5034799;28;20420;-71
2021/07/25 02:14:32;;;;;;;25.63;21.25;;;;;;;;;;5035106;28;20029;-70
2021/07/25 02:16:58;;;;;;;29.52;21.00;;;;;;;;;;5034988;28;20068;-71
2021/07/25 02:19:24;;;;;;;25.40;21.30;;;;;;;;;;5034972;28;20057;-71
2021/07/25 02:21:50;;;;;;;28.65;21.48;;;;;;;;;;5032066;28;20055;-69
2021/07/25 02:24:19;;;;;;;27.88;21.17;;;;;;;;;;5033537;28;20167;-70
2021/07/25 02:26:45;;;;;;;25.55;21.35;;;;;;;;;;5032836;28;20525;-69
2021/07/25 02:29:12;;;;;;;24.33;21.02;;;;;;;;;;5034670;28;20120;-69
2021/07/25 02:31:38;;;;;;;24.40;20.40;;;;;;;;;;5034787;28;20100;-70
2021/07/25 02:34:04;;;;;;;29.13;21.15;;;;;;;;;;5034614;28;20054;-69
2021/07/25 02:36:30;;;;;;;30.05;20.85;;;;;;;;;;5034585;28;20108;-68
2021/07/25 02:38:57;;;;;;;26.13;20.05;;;;;;;;;;5033247;28;20033;-70
2021/07/25 02:41:23;;;;;;;22.90;19.70;;;;;;;;;;5034453;28;20486;-70
2021/07/25 02:43:49;;;;;;;26.90;19.55;;;;;;;;;;5033154;28;20028;-70
2021/07/25 02:46:15;;;;;;;22.95;19.10;;;;;;;;;;5033918;28;20109;-69
2021/07/25 02:48:41;;;;;;;23.65;19.20;;;;;;;;;;5033968;28;20071;-70
2021/07/25 02:51:08;;;;;;;28.83;18.80;;;;;;;;;;5034376;28;20096;-71
2021/07/25 02:53:34;;;;;;;23.05;18.77;;;;;;;;;;5034300;28;20116;-70
2021/07/25 02:56:00;;;;;;;22.95;18.45;;;;;;;;;;5032062;28;20108;-71
2021/07/25 02:58:26;;;;;;;21.05;17.65;;;;;;;;;;5032531;28;20028;-71
2021/07/25 03:00:52;;;;;;;23.90;17.92;;;;;;;;;;5032576;28;20537;-71
2021/07/25 03:03:19;;;;;;;21.05;17.20;;;;;;;;;;5032762;28;20108;-71
2021/07/25 03:05:45;;;;;;;23.25;17.45;;;;;;;;;;5032753;28;20122;-71
2021/07/25 03:08:11;;;;;;;27.45;17.58;;;;;;;;;;5032445;28;20039;-73
2021/07/25 03:10:39;;;;;;;20.83;16.65;;;;;;;;;;5032645;28;20029;-72
2021/07/25 03:13:06;;;;;;;21.38;16.05;;;;;;;;;;5033925;28;20025;-72
2021/07/25 03:15:32;;;;;;;23.80;16.80;;;;;;;;;;5033960;28;20482;-72
2021/07/25 03:17:58;;;;;;;22.98;16.42;;;;;;;;;;5033678;28;20104;-71
2021/07/25 03:20:26;;;;;;;22.95;16.73;;;;;;;;;;5033848;28;20018;-72
2021/07/25 03:22:53;;;;;;;22.75;17.40;;;;;;;;;;5032471;28;20373;-71
2021/07/25 03:25:19;;;;;;;20.17;16.55;;;;;;;;;;5033427;28;20446;-71
2021/07/25 03:27:45;;;;;;;24.50;18.23;;;;;;;;;;5033176;28;20509;-71
2021/07/25 03:30:12;;;;;;;21.05;17.30;;;;;;;;;;5033633;28;20064;-72
2021/07/25 03:32:38;;;;;;;26.15;17.48;;;;;;;;;;5033604;28;20029;-72
2021/07/25 03:35:04;;;;;;;22.45;16.85;;;;;;;;;;5033624;28;20025;-72
2021/07/25 03:37:31;;;;;;;20.63;17.38;;;;;;;;;;5033465;28;20053;-71
2021/07/25 03:39:57;;;;;;;25.20;18.73;;;;;;;;;;5033479;28;20025;-71
2021/07/25 03:42:23;;;;;;;21.65;17.80;;;;;;;;;;5032130;28;20112;-71
2021/07/25 03:44:50;;;;;;;23.13;17.00;;;;;;;;;;5033380;28;20029;-70
2021/07/25 03:47:16;;;;;;;26.95;18.30;;;;;;;;;;5032060;28;20108;-71
2021/07/25 03:49:43;;;;;;;24.30;17.90;;;;;;;;;;5033378;28;20036;-70
2021/07/25 03:52:13;;;;;;;23.95;17.75;;;;;;;;;;5033061;28;20385;-68
2021/07/25 03:54:42;;;;;;;26.33;17.20;;;;;;;;;;5033367;28;20144;-69
2021/07/25 03:57:09;;;;;;;23.58;16.98;;;;;;;;;;5033232;28;20025;-69
2021/07/25 03:59:35;;;;;;;21.35;17.27;;;;;;;;;;5033201;28;20470;-71
2021/07/25 04:02:02;;;;;;;21.58;17.42;;;;;;;;;;5031884;28;20119;-70
2021/07/25 04:04:28;;;;;;;21.77;17.38;;;;;;;;;;5033124;28;20030;-70
2021/07/25 04:06:54;;;;;;;30.17;17.52;;;;;;;;;;5033056;28;20467;-70
2021/07/25 04:09:21;;;;;;;19.65;17.50;;;;;;;;;;5031492;28;20026;-70
2021/07/25 04:11:55;;;;;;;26.40;18.40;;;;;;;;;;5033290;28;20117;-71
2021/07/25 04:14:21;;;;;;;22.80;17.85;;;;;;;;;;5033118;28;20018;-71
2021/07/25 04:16:48;;;;;;;25.58;19.48;;;;;;;;;;5033062;28;20037;-70
2021/07/25 04:19:14;;;;;;;34.55;22.50;;;;;;;;;;5033022;28;20032;-71
2021/07/25 04:21:41;;;;;;;67.43;35.63;;;;;;;;;;5032920;28;20030;-71
2021/07/25 04:24:07;;;;;;;31.30;20.52;;;;;;;;;;5032757;28;20105;-70
2021/07/25 04:26:34;;;;;;;25.60;19.08;;;;;;;;;;5032613;28;20063;-69
2021/07/25 04:29:00;;;;;;;25.13;19.05;;;;;;;;;;5031880;28;20104;-69
2021/07/25 04:31:26;;;;;;;22.25;16.67;;;;;;;;;;5031607;28;20093;-70
2021/07/25 04:33:54;;;;;;;18.83;15.75;;;;;;;;;;5031337;28;20053;-72
2021/07/25 04:36:25;;;;;;;24.60;15.98;;;;;;;;;;5031575;28;20018;-72
2021/07/25 04:38:52;;;;;;;24.73;16.38;;;;;;;;;;5030209;28;20045;-71
2021/07/25 04:41:20;;;;;;;20.17;16.40;;;;;;;;;;5032739;28;20028;-70
2021/07/25 04:43:47;;;;;;;21.00;16.13;;;;;;;;;;5032037;28;20024;-69
2021/07/25 04:46:13;;;;;;;19.23;17.02;;;;;;;;;;5032738;28;20037;-70
2021/07/25 04:48:54;;;;;;;20.08;16.17;;;;;;;;;;5031412;28;20021;-69
2021/07/25 04:51:21;;;;;;;19.83;17.25;;;;;;;;;;5032719;28;20025;-70
2021/07/25 04:53:49;;;;;;;24.90;17.60;;;;;;;;;;5031262;28;20116;-71
2021/07/25 04:56:15;;;;;;;26.13;18.08;;;;;;;;;;5031433;28;20382;-70
2021/07/25 04:58:49;;;;;;;25.15;18.45;;;;;;;;;;5032681;28;20091;-71
2021/07/25 05:01:18;;;;;;;23.92;18.98;;;;;;;;;;5032670;28;20018;-70
2021/07/25 05:03:45;;;;;;;22.70;18.73;;;;;;;;;;5031345;28;20022;-70
2021/07/25 05:06:13;;;;;;;21.17;17.55;;;;;;;;;;5032279;28;20517;-70
2021/07/25 05:08:40;;;;;;;22.55;17.52;;;;;;;;;;5032111;28;20040;-69
2021/07/25 05:11:09;;;;;;;23.65;18.02;;;;;;;;;;5030929;28;20032;-69
2021/07/25 05:13:36;;;;;;;24.88;18.35;;;;;;;;;;5031170;28;20478;-70
2021/07/25 05:16:07;;;;;;;27.10;19.88;;;;;;;;;;5032555;28;20030;-70
2021/07/25 05:18:34;;;;;;;30.33;19.67;;;;;;;;;;5033966;28;20072;-71
2021/07/25 05:21:01;;;;;;;36.40;26.30;;;;;;;;;;5034764;28;20029;-70
2021/07/25 05:23:41;;;;;;;35.53;26.73;;;;;;;;;;5034390;28;20048;-69
2021/07/25 05:26:10;;;;;;;39.70;26.13;;;;;;;;;;5035667;28;20482;-71
2021/07/25 05:28:37;;;;;;;42.08;23.63;;;;;;;;;;5034584;28;20136;-70
2021/07/25 05:31:06;;;;;;;33.33;21.50;;;;;;;;;;5035880;28;20104;-70
2021/07/25 05:33:32;;;;;;;31.05;19.35;;;;;;;;;;5035887;28;20091;-71
2021/07/25 05:35:58;;;;;;;25.75;17.65;;;;;;;;;;5035805;28;20021;-71
2021/07/25 05:38:25;;;;;;;29.45;17.48;;;;;;;;;;5035738;28;20018;-70
2021/07/25 05:40:51;;;;;;;20.60;15.07;;;;;;;;;;5035981;28;20115;-70
2021/07/25 05:43:17;;;;;;;21.23;15.35;;;;;;;;;;5035654;28;20105;-69
2021/07/25 05:45:44;;;;;;;21.05;15.95;;;;;;;;;;5035287;28;20436;-70
2021/07/25 05:48:10;;;;;;;21.30;15.68;;;;;;;;;;5035557;28;20108;-69
2021/07/25 05:50:36;;;;;;;21.10;15.85;;;;;;;;;;5033980;28;20036;-71
2021/07/25 05:53:03;;;;;;;19.70;16.15;;;;;;;;;;5035459;28;20032;-71
2021/07/25 05:55:33;;;;;;;24.15;14.80;;;;;;;;;;5035485;28;20187;-71
2021/07/25 05:58:00;;;;;;;23.17;14.75;;;;;;;;;;5034099;28;20553;-70
2021/07/25 06:00:26;;;;;;;20.98;15.73;;;;;;;;;;5035341;28;20021;-70
2021/07/25 06:02:53;;;;;;;16.98;15.10;;;;;;;;;;5035309;28;20076;-71
2021/07/25 06:05:20;;;;;;;20.55;15.38;;;;;;;;;;5035239;28;20075;-71
2021/07/25 06:07:47;;;;;;;24.85;16.50;;;;;;;;;;5033971;28;20021;-70
2021/07/25 06:10:13;;;;;;;22.33;15.52;;;;;;;;;;5033860;28;20033;-72
2021/07/25 06:12:40;;;;;;;16.67;14.13;;;;;;;;;;5033794;28;20026;-71
2021/07/25 06:15:07;;;;;;;21.52;16.20;;;;;;;;;;5035309;28;20422;-70
2021/07/25 06:17:33;;;;;;;22.58;16.50;;;;;;;;;;5033764;28;20075;-71
2021/07/25 06:19:59;;;;;;;18.45;15.77;;;;;;;;;;5034685;28;20055;-70
2021/07/25 06:22:25;;;;;;;20.98;15.98;;;;;;;;;;5033670;28;20167;-70
2021/07/25 06:24:51;;;;;;;21.15;15.48;;;;;;;;;;5033520;28;20557;-71
2021/07/25 06:27:17;;;;;;;20.13;15.82;;;;;;;;;;5034702;28;20053;-71
2021/07/25 06:29:44;;;;;;;23.48;16.48;;;;;;;;;;5033664;28;20060;-71
2021/07/25 06:32:10;;;;;;;21.52;16.13;;;;;;;;;;5033506;28;20053;-70
2021/07/25 06:34:36;;;;;;;25.98;15.98;;;;;;;;;;5034714;28;20108;-67
2021/07/25 06:37:02;;;;;;;18.30;15.07;;;;;;;;;;5034408;28;20116;-67
2021/07/25 06:39:29;;;;;;;31.35;19.20;;;;;;;;;;5034658;28;20100;-67
2021/07/25 06:41:55;;;;;;;21.27;16.73;;;;;;;;;;5034536;28;20105;-67
2021/07/25 06:44:21;;;;;;;27.33;17.08;;;;;;;;;;5034524;28;20160;-68
2021/07/25 06:46:47;;;;;;;21.35;16.17;;;;;;;;;;5034389;28;20120;-68
2021/07/25 06:49:14;;;;;;;28.15;18.38;;;;;;;;;;5034420;28;20022;-67
2021/07/25 06:51:40;;;;;;;36.92;20.17;;;;;;;;;;5034094;28;20382;-70
2021/07/25 06:54:06;;;;;;;24.50;17.80;;;;;;;;;;5034342;28;20100;-71
2021/07/25 06:56:32;;;;;;;48.42;27.60;;;;;;;;;;5034371;28;20061;-72
2021/07/25 06:58:59;;;;;;;21.00;18.50;;;;;;;;;;5034225;28;20030;-71
2021/07/25 07:01:27;;;;;;;24.15;16.55;;;;;;;;;;5034170;28;20025;-71
2021/07/25 07:03:54;;;;;;;20.17;16.70;;;;;;;;;;5034155;28;20026;-71
2021/07/25 07:06:20;;;;;;;20.63;16.48;;;;;;;;;;5032695;28;20040;-71
2021/07/25 07:08:46;;;;;;;22.20;16.88;;;;;;;;;;5034036;28;20061;-71
2021/07/25 07:11:12;;;;;;;22.92;15.05;;;;;;;;;;5033942;28;20084;-71
2021/07/25 07:13:39;;;;;;;21.08;15.52;;;;;;;;;;5033680;28;20021;-71
2021/07/25 07:16:05;;;;;;;24.33;14.85;;;;;;;;;;5034228;28;20037;-71
2021/07/25 07:18:31;;;;;;;18.50;15.63;;;;;;;;;;5033841;28;20413;-71
2021/07/25 07:20:57;;;;;;;26.73;16.83;;;;;;;;;;5032553;28;20037;-71
2021/07/25 07:23:25;;;;;;;21.50;16.33;;;;;;;;;;5033769;28;20441;-71
2021/07/25 07:25:52;;;;;;;21.38;15.73;;;;;;;;;;5033699;28;20045;-71
2021/07/25 07:28:19;;;;;;;20.67;15.73;;;;;;;;;;5033818;28;20049;-70
2021/07/25 07:30:47;;;;;;;19.67;16.20;;;;;;;;;;5033686;28;20536;-72
2021/07/25 07:33:17;;;;;;;27.13;17.65;;;;;;;;;;5033680;28;20029;-70
2021/07/25 07:35:44;;;;;;;27.17;17.17;;;;;;;;;;5033232;28;20108;-70
2021/07/25 07:38:11;;;;;;;18.35;16.23;;;;;;;;;;5033839;28;20017;-71
2021/07/25 07:40:39;;;;;;;21.40;16.60;;;;;;;;;;5031872;28;20116;-70
2021/07/25 07:43:06;;;;;;;24.80;16.20;;;;;;;;;;5033696;28;20026;-72
2021/07/25 07:45:33;;;;;;;20.52;16.48;;;;;;;;;;5033317;28;20037;-71
2021/07/25 07:47:59;;;;;;;20.45;16.15;;;;;;;;;;5032102;28;20084;-70
2021/07/25 07:50:25;;;;;;;18.10;16.20;;;;;;;;;;5031970;28;20025;-70
2021/07/25 07:52:52;;;;;;;24.80;17.08;;;;;;;;;;5033269;28;20467;-70
2021/07/25 07:55:18;;;;;;;19.20;17.20;;;;;;;;;;5033216;28;20037;-72
2021/07/25 07:57:45;;;;;;;19.63;17.02;;;;;;;;;;5031976;28;20025;-70
2021/07/25 08:00:12;;;;;;;20.83;16.08;;;;;;;;;;5031840;28;20029;-70
2021/07/25 08:02:38;;;;;;;20.33;15.95;;;;;;;;;;5031170;28;20057;-71
2021/07/25 08:05:05;;;;;;;19.65;17.52;;;;;;;;;;5032972;28;20028;-70
2021/07/25 08:07:31;;;;;;;19.02;16.98;;;;;;;;;;5031796;28;20025;-70
2021/07/25 08:09:57;;;;;;;21.80;16.35;;;;;;;;;;5032969;28;20037;-70
2021/07/25 08:12:23;;;;;;;21.90;16.33;;;;;;;;;;5033003;28;20549;-70
2021/07/25 08:14:50;;;;;;;22.02;16.10;;;;;;;;;;5032809;28;20025;-70
2021/07/25 08:17:16;;;;;;;19.55;16.17;;;;;;;;;;5032648;28;20030;-70
2021/07/25 08:19:43;;;;;;;18.67;15.88;;;;;;;;;;5032886;28;20474;-70
2021/07/25 08:22:10;;;;;;;22.63;16.75;;;;;;;;;;5032951;28;20079;-70
2021/07/25 08:24:38;;;;;;;24.70;16.55;;;;;;;;;;5032640;28;20021;-69
2021/07/25 08:27:05;;;;;;;23.73;15.95;;;;;;;;;;5032418;28;20140;-70
2021/07/25 08:29:31;;;;;;;20.13;15.90;;;;;;;;;;5032870;28;20021;-70
2021/07/25 08:32:00;;;;;;;20.85;15.95;;;;;;;;;;5031835;28;20112;-70
2021/07/25 08:34:27;;;;;;;24.83;16.27;;;;;;;;;;5032871;28;20025;-70
2021/07/25 08:36:53;;;;;;;20.02;16.52;;;;;;;;;;5032928;28;20025;-70
2021/07/25 08:39:20;;;;;;;22.67;16.50;;;;;;;;;;5031551;28;20132;-69
2021/07/25 08:42:04;;;;;;;20.08;15.80;;;;;;;;;;5032809;28;20049;-69
2021/07/25 08:44:31;;;;;;;21.42;17.20;;;;;;;;;;5032769;28;20474;-70
2021/07/25 08:46:57;;;;;;;28.77;20.30;;;;;;;;;;5031303;28;20116;-69
2021/07/25 08:49:35;;;;;;;23.65;18.48;;;;;;;;;;5031415;28;20176;-70
2021/07/25 08:52:04;;;;;;;37.60;23.20;;;;;;;;;;5032777;28;20105;-70
2021/07/25 08:54:30;;;;;;;23.17;18.45;;;;;;;;;;5034282;28;20116;-70
2021/07/25 08:56:59;;;;;;;18.17;16.25;;;;;;;;;;5036599;28;20042;-70
2021/07/25 08:59:28;;;;;;;16.75;14.82;;;;;;;;;;5036443;28;20017;-70
2021/07/25 09:01:57;;;;;;;18.55;14.23;;;;;;;;;;5036408;28;20049;-70
2021/07/25 09:04:23;;;;;;;19.15;14.77;;;;;;;;;;5035100;28;20025;-70
2021/07/25 09:06:49;;;;;;;14.75;13.32;;;;;;;;;;5036103;28;20041;-70
2021/07/25 09:09:17;;;;;;;15.80;14.10;;;;;;;;;;5036307;28;20108;-70
2021/07/25 09:11:44;;;;;;;20.23;13.95;;;;;;;;;;5036264;28;20017;-70
2021/07/25 09:14:10;;;;;;;14.75;13.07;;;;;;;;;;5034551;28;20484;-69
2021/07/25 09:16:37;;;;;;;17.10;13.80;;;;;;;;;;5036316;28;20116;-70
2021/07/25 09:19:04;;;;;;;17.50;15.55;;;;;;;;;;5036030;28;20021;-70
2021/07/25 09:21:36;;;;;;;17.35;15.07;;;;;;;;;;5035846;28;20082;-70
2021/07/25 09:24:21;;;;;;;17.45;15.40;;;;;;;;;;5032108;28;20527;-70
2021/07/25 09:26:58;;;;;;;17.23;13.70;;;;;;;;;;5033204;28;20525;-70
2021/07/25 09:29:28;;;;;;;16.77;13.77;;;;;;;;;;5035504;28;20024;-71
2021/07/25 09:32:15;;;;;;;16.85;13.35;;;;;;;;;;5034178;28;20025;-71
2021/07/25 09:34:42;;;;;;;18.67;13.18;;;;;;;;;;5034291;28;20030;-71
2021/07/25 09:37:16;;;;;;;14.00;12.60;;;;;;;;;;5035754;28;20029;-71
2021/07/25 09:39:43;;;;;;;14.80;12.73;;;;;;;;;;5034420;28;20124;-72
2021/07/25 09:42:10;;;;;;;13.68;12.27;;;;;;;;;;5034446;28;20116;-72
2021/07/25 09:44:56;;;;;;;13.27;11.98;;;;;;;;;;5034319;28;20068;-71
2021/07/25 09:47:28;;;;;;;16.30;12.07;;;;;;;;;;5035625;28;20029;-72
2021/07/25 09:49:55;;;;;;;14.93;11.57;;;;;;;;;;5035652;28;20110;-72
2021/07/25 09:52:41;;;;;;;12.25;11.10;;;;;;;;;;5034286;28;20032;-73
2021/07/25 09:55:08;;;;;;;16.48;11.90;;;;;;;;;;5035285;28;20587;-72
2021/07/25 09:57:37;;;;;;;14.63;12.80;;;;;;;;;;5035412;28;20028;-72
2021/07/25 10:00:12;;;;;;;14.02;12.43;;;32.90;96.70;;;;;;5035451;28;20014;-71
2021/07/25 10:02:42;;;;;;;14.65;11.88;;;33.20;70.20;;;;;;5034927;28;20022;-74
2021/07/25 10:05:09;;;;;;;12.93;11.63;;;33.20;63.40;;;;;;5035082;28;20116;-72
2021/07/25 10:07:35;;;;;;;12.73;11.45;;;33.20;61.40;;;;;;5035058;28;20034;-73
2021/07/25 10:10:02;;;;;;;13.75;11.32;;;;;;;;;;5035556;28;20029;-72
2021/07/25 10:12:35;;;;;;;11.65;10.65;;;;;;;;;;5035002;28;20053;-72
2021/07/25 10:15:03;;;;;;;12.57;11.27;;;;;;;;;;5035040;28;20154;-71
2021/07/25 10:17:33;;;;;;;13.05;11.57;;;;;;;;;;5035336;28;20025;-73
2021/07/25 10:20:02;;;;;;;16.98;12.05;;;33.70;96.30;;;;;;5035109;28;20022;-71
2021/07/25 10:22:32;;;;;;;12.93;11.23;;;34.10;90.00;;;;;;5034905;28;20052;-71
2021/07/25 10:25:01;;;;;;;14.27;11.82;;;34.10;81.40;;;;;;5034786;28;20425;-72
2021/07/25 10:27:33;;;;;;;11.85;10.60;;;;;;;;;;5034700;28;20085;-72
2021/07/25 10:30:06;;;;;;;11.98;10.77;;;;;;;;;;5035019;28;20418;-71
2021/07/25 10:32:33;;;;;;;12.13;10.93;;;;;;;;;;5034817;28;20057;-69
2021/07/25 10:35:03;;;;;;;12.00;10.77;;;34.60;94.00;;;;;;5033176;28;20018;-71
2021/07/25 10:37:36;;;;;;;11.93;10.73;;;35.00;83.80;;;;;;5033943;28;20532;-70
2021/07/25 10:40:02;;;;;;;12.68;10.95;;;35.20;59.30;;;;;;5033259;28;20391;-70
2021/07/25 10:42:31;;;;;;;13.00;11.43;;;35.60;57.00;;;;;;5033178;28;20056;-70
2021/07/25 10:44:57;;;;;;;14.88;11.60;;;36.10;56.80;;;;;;5034491;28;20060;-70
2021/07/25 10:47:28;;;;;;;12.50;11.30;;;36.50;55.00;;;;;;5034281;28;20045;-72
2021/07/25 10:50:20;;;;;;;11.32;9.95;;;36.90;56.70;;;;;;5032578;28;20033;-72
2021/07/25 10:52:54;;;;;;;12.88;10.13;;;37.00;55.50;;;;;;5034139;28;20100;-69
2021/07/25 10:55:38;;;;;;;10.40;9.40;;;37.50;52.40;;;;;;5034275;28;20022;-69
2021/07/25 10:58:06;;;;;;;12.80;10.27;;;38.10;52.20;;;;;;5032893;28;20070;-67
2021/07/25 11:00:47;;;;;;;11.73;10.43;;;38.40;53.10;;;;;;5034174;28;20477;-67
2021/07/25 11:03:24;;;;;;;;;;;38.60;49.00;;;;;;5034577;28;20083;-66
2021/07/25 11:06:05;;;;;;;11.38;9.27;;;39.00;49.00;;;;;;5033893;28;20011;-68
2021/07/25 11:08:35;;;;;;;11.02;10.02;;;39.30;49.50;;;;;;5033949;28;20033;-70
2021/07/25 11:11:21;;;;;;;10.82;9.68;;;39.60;49.40;;;;;;5034368;28;20124;-70
2021/07/25 11:13:47;;;;;;;11.30;10.25;;;39.80;48.60;;;;;;5033490;28;20029;-73
2021/07/25 11:16:34;;;;;;;10.75;9.60;;;39.70;48.70;;;;;;5033365;28;20029;-70
2021/07/25 11:19:04;;;;;;;11.05;9.27;;;39.90;49.80;;;;;;5020207;28;20038;-71
2021/07/25 11:21:36;;;;;;;11.05;9.88;;;40.20;48.60;;;;;;5032378;28;20041;-73
2021/07/25 11:24:23;;;;;;;9.98;9.02;;;40.70;48.10;;;;;;5032351;28;20087;-72
2021/07/25 11:26:53;;;;;;;13.73;9.93;;;41.10;46.70;;;;;;5033359;28;20103;-71
2021/07/25 11:29:40;;;;;;;10.40;9.40;;;40.40;47.70;;;;;;5033440;28;20558;-71
2021/07/25 11:32:38;;;;;;;11.27;9.23;;;40.20;46.80;;;;;;5019992;28;20455;-72
2021/07/25 11:35:06;;;;;;;10.50;8.65;;;40.50;49.00;;;;;;5032301;28;20043;-71
2021/07/25 11:37:40;;;;;;;9.82;8.80;;;40.70;47.10;;;;;;5032206;28;20108;-69
2021/07/25 11:40:10;;;;;;;10.93;9.45;;;;;;;;;;5033469;28;20340;-70
2021/07/25 11:42:37;;;;;;;10.75;9.23;;;41.30;46.20;;;;;;5032132;28;20497;-71
2021/07/25 11:45:06;;;;;;;10.23;9.13;;;41.60;45.70;;;;;;5032092;28;20037;-71
2021/07/25 11:47:33;;;;;;;10.77;9.80;;;;;;;;;;5033295;28;20034;-72
2021/07/25 11:49:59;;;;;;;13.32;9.45;;;42.00;44.50;;;;;;5032031;28;20485;-71
2021/07/25 11:52:28;;;;;;;11.27;9.43;;;42.20;47.40;;;;;;5032024;28;20136;-71
2021/07/25 11:54:54;;;;;;;9.88;9.02;;;42.70;46.00;;;;;;5031922;28;20029;-72
2021/07/25 11:57:28;;;;;;;11.07;9.52;;;43.40;45.40;;;;;;5033216;28;20029;-71
2021/07/25 11:59:58;;;;;;;10.02;9.13;;;43.20;62.00;;;;;;5033237;28;20113;-68
2021/07/25 12:02:25;;;;;;;10.38;8.95;;;;;;;;;;5031632;28;20029;-68
2021/07/25 12:04:51;;;;;;;12.95;9.05;;;43.80;45.10;;;;;;5033022;28;20021;-67
2021/07/25 12:07:19;;;;;;;11.25;9.55;;;;;;;;;;5031619;28;20029;-69
2021/07/25 12:09:53;;;;;;;10.02;8.55;;;43.70;71.60;;;;;;5032813;28;20083;-69
2021/07/25 12:12:29;;;;;;;9.40;8.55;;;43.90;44.60;;;;;;5033066;28;20461;-69
2021/07/25 12:14:57;;;;;;;10.40;9.40;;;;;;;;;;5033395;28;20646;-69
2021/07/25 12:17:48;;;;;;;16.23;9.43;;;;;;;;;;5033084;28;20025;-68
2021/07/25 12:20:20;;;;;;;10.27;9.38;;;;;;;;;;5031595;28;20554;-70
2021/07/25 12:23:05;;;;;;;9.50;8.60;;;;;;;;;;5032843;28;20025;-69
2021/07/25 12:28:22;;;;;;;10.35;7.88;;;;;;;;;;5025043;28;20064;-70
2021/07/25 12:30:53;;;;;;;9.10;8.20;;;;;;;;;;5037116;28;20059;-68
2021/07/25 12:33:23;;;;;;;11.50;8.70;;;;;;;;;;5037230;28;20427;-68
2021/07/25 12:35:49;;;;;;;9.55;8.55;;;;;;;;;;5035571;28;20033;-69
2021/07/25 12:38:16;;;;;;;9.02;8.13;;;;;;;;;;5036948;28;20092;-69
2021/07/25 12:40:50;;;;;;;10.90;8.68;;;;;;;;;;5037172;28;20267;-69
2021/07/25 12:43:17;;;;;;;10.23;9.07;;;;;;;;;;5035841;28;20385;-69
2021/07/25 12:45:44;;;;;;;9.98;9.18;;;;;;;;;;5036423;28;20033;-69
2021/07/25 12:48:11;;;;;;;10.50;9.27;;;;;;;;;;5035650;28;20070;-71
2021/07/25 12:53:30;;;;;;;10.32;9.13;;;47.10;41.90;;;;;;5036627;28;20029;-69
2021/07/25 12:56:05;;;;;;;10.43;9.25;;;47.30;40.80;;;;;;5035525;28;20022;-69
2021/07/25 12:58:43;;;;;;;10.35;8.90;;;47.40;41.10;;;;;;5035315;28;20040;-68
2021/07/25 13:03:57;;;;;;;10.65;9.73;;;47.90;41.10;;;;;;5033450;28;20056;-71
2021/07/25 13:06:43;;;;;;;10.88;9.88;;;47.80;40.20;;;;;;5034719;28;20450;-68
2021/07/25 13:09:19;;;;;;;10.38;9.38;;;47.60;40.80;;;;;;5032193;28;20446;-70
2021/07/25 13:11:50;;;;;;;10.48;9.57;;;47.90;42.40;;;;;;5033625;28;20025;-69
2021/07/25 13:14:36;;;;;;;10.93;9.85;;;47.90;41.70;;;;;;5033669;28;20434;-70
2021/07/25 13:17:02;;;;;;;10.95;9.23;;;48.10;40.80;;;;;;5033368;28;20401;-69
2021/07/25 13:19:28;;;;;;;10.63;9.65;;;48.20;40.50;;;;;;5034201;28;20041;-70
2021/07/25 13:21:55;;;;;;;9.88;9.07;;;48.40;40.60;;;;;;5036082;28;20029;-70
2021/07/25 13:24:21;;;;;;;10.00;9.20;;;48.70;40.30;;;;;;5034750;28;20056;-69
2021/07/25 13:26:47;;;;;;;9.75;8.95;;;48.80;40.60;;;;;;5035647;28;20124;-70
2021/07/25 13:29:13;;;;;;;9.45;8.68;;;48.90;40.00;;;;;;5035959;28;20518;-68
2021/07/25 13:31:39;;;;;;;9.77;8.30;;;48.80;40.00;;;;;;5035914;28;20410;-71
2021/07/25 13:34:05;;;;;;;9.80;9.00;;;48.80;41.20;;;;;;5034525;28;20026;-71
2021/07/25 13:36:31;;;;;;;9.25;8.38;;;49.10;39.60;;;;;;5035770;28;20076;-71
2021/07/25 13:38:57;;;;;;;9.48;8.52;;;49.10;40.00;;;;;;5033906;28;20037;-71
2021/07/25 13:41:23;;;;;;;9.65;8.75;;;48.90;40.90;;;;;;5034984;28;20455;-70
2021/07/25 13:43:50;;;;;;;9.05;8.25;;;48.70;39.90;;;;;;5035170;28;20026;-68
2021/07/25 13:46:20;;;;;;;11.45;8.40;;;48.30;39.80;;;;;;5035598;28;20051;-67
2021/07/25 13:48:47;;;;;;;9.00;8.00;;;48.30;40.40;;;;;;5035657;28;20068;-66
2021/07/25 13:51:15;;;;;;;9.40;8.27;;;47.80;40.80;;;;;;5035611;28;20021;-66
2021/07/25 13:53:42;;;;;;;9.75;8.43;;;;;;;;;;5035789;28;20041;-67
2021/07/25 13:56:15;;;;;;;9.25;8.35;;;;;;;;;;5035179;28;20033;-68
2021/07/25 13:58:41;;;;;;;10.85;8.48;;;;;;;;;;5035174;28;20531;-68
2021/07/25 14:01:07;;;;;;;9.52;8.63;;;;;;;;;;5033870;28;20030;-71
2021/07/25 14:03:34;;;;;;;10.00;8.82;;;;;;;;;;5032750;28;20079;-72
2021/07/25 14:06:00;;;;;;;9.07;7.85;;;;;;;;;;5035120;28;20695;-72
2021/07/25 14:08:26;;;;;;;14.20;8.95;;;;;;;;;;5035253;28;20025;-72
2021/07/25 14:10:53;;;;;;;12.00;9.10;;;;;;;;;;5034972;28;20148;-72
2021/07/25 14:13:19;;;;;;;9.65;8.68;;;;;;;;;;5035190;28;20025;-72
2021/07/25 14:15:45;;;;;;;9.57;8.48;;;;;;;;;;5033776;28;20537;-72
2021/07/25 14:18:11;;;;;;;8.93;8.20;;;;;;;;;;5034804;28;20413;-72